createdAt,value
2024-03-04T00:00:38.855Z,79168.91
2024-03-04T00:02:20.227Z,79175.03
2024-03-04T00:04:01.740Z,79171.44
2024-03-04T00:05:43.248Z,79164.41
2024-03-04T00:07:24.675Z,79166.34
2024-03-04T00:09:06.296Z,79164.59
2024-03-04T00:10:47.734Z,79170.06
2024-03-04T00:12:29.118Z,79173.34
2024-03-04T00:14:10.489Z,79170.28
2024-03-04T00:15:51.814Z,79170.75
2024-03-04T00:17:33.186Z,79169.41
2024-03-04T00:19:14.587Z,79171.22
2024-03-04T00:20:55.942Z,79173.22
2024-03-04T00:22:37.374Z,79172.81
2024-03-04T00:24:18.795Z,79172.19
2024-03-04T00:26:00.151Z,79173.44
2024-03-04T00:27:41.523Z,79173.28
2024-03-04T00:29:22.888Z,79172.53
2024-03-04T00:31:04.405Z,79175.19
2024-03-04T00:32:45.877Z,79177.84
2024-03-04T00:34:27.290Z,79183.53
2024-03-04T00:36:08.639Z,79200.28
2024-03-04T00:37:49.993Z,79203.84
2024-03-04T00:39:31.382Z,79200.09
2024-03-04T00:41:12.713Z,79205.53
2024-03-04T00:42:54.093Z,79213.78
2024-03-04T00:44:35.460Z,79205.84
2024-03-04T00:46:16.824Z,79200.81
2024-03-04T00:47:58.199Z,79197.66
2024-03-04T00:49:39.591Z,79200.56
2024-03-04T00:51:20.969Z,79197.41
2024-03-04T00:53:02.299Z,79198.97
2024-03-04T00:54:43.664Z,79199.13
2024-03-04T00:56:25.019Z,79199.91
2024-03-04T00:58:06.386Z,79209.22
2024-03-04T00:59:47.782Z,79213.06
2024-03-04T01:01:29.212Z,79213.31
2024-03-04T01:03:10.573Z,79209.13
2024-03-04T01:04:51.958Z,79207.19
2024-03-04T01:06:33.310Z,79216.66
2024-03-04T01:08:14.671Z,79208.78
2024-03-04T01:09:56.054Z,79211.06
2024-03-04T01:11:37.468Z,79213.88
2024-03-04T01:13:18.831Z,79211.63
2024-03-04T01:15:00.311Z,79212.69
2024-03-04T01:16:41.693Z,79212.81
2024-03-04T01:18:23.112Z,79207.97
2024-03-04T01:20:04.652Z,79213.41
2024-03-04T01:21:46.033Z,79206.25
2024-03-04T01:23:27.388Z,79222.09
2024-03-04T01:25:08.793Z,79211.28
2024-03-04T01:26:50.176Z,79219.63
2024-03-04T01:28:31.611Z,79213.81
2024-03-04T01:30:12.960Z,79223.16
2024-03-04T01:31:54.342Z,79217.09
2024-03-04T01:33:35.710Z,79215.25
2024-03-04T01:35:17.095Z,79211.41
2024-03-04T01:36:58.453Z,79213.03
2024-03-04T01:38:39.854Z,79211.28
2024-03-04T01:40:21.272Z,79216.09
2024-03-04T01:42:02.644Z,79208.09
2024-03-04T01:43:44.060Z,79202.66
2024-03-04T01:45:25.408Z,79208.25
2024-03-04T01:47:06.801Z,79191.88
2024-03-04T01:48:48.221Z,79182.50
2024-03-04T01:50:29.569Z,79181.84
2024-03-04T01:52:10.926Z,79189.50
2024-03-04T01:53:52.479Z,79205.97
2024-03-04T01:55:33.890Z,79207.84
2024-03-04T01:57:15.356Z,79219.44
2024-03-04T01:58:56.725Z,79215.34
2024-03-04T02:00:38.133Z,79216.59
2024-03-04T02:02:19.505Z,79211.91
2024-03-04T02:04:00.941Z,79215.94
2024-03-04T02:05:42.361Z,79210.25
2024-03-04T02:07:23.781Z,79215.50
2024-03-04T02:09:05.181Z,79217.59
2024-03-04T02:10:46.587Z,79218.91
2024-03-04T02:12:27.996Z,79219.28
2024-03-04T02:14:09.378Z,79212.03
2024-03-04T02:15:50.768Z,79207.38
2024-03-04T02:17:32.151Z,79209.22
2024-03-04T02:19:13.549Z,79209.41
2024-03-04T02:20:55.007Z,79210.66
2024-03-04T02:22:36.471Z,79210.44
2024-03-04T02:24:17.874Z,79219.34
2024-03-04T02:25:59.261Z,79220.59
2024-03-04T02:27:40.636Z,79222.78
2024-03-04T02:29:22.042Z,79218.78
2024-03-04T02:31:03.481Z,79220.47
2024-03-04T02:32:44.989Z,79230.63
2024-03-04T02:34:26.516Z,79225.78
2024-03-04T02:36:07.904Z,79227.22
2024-03-04T02:37:49.246Z,79227.75
2024-03-04T02:39:30.638Z,79225.28
2024-03-04T02:41:12.065Z,79222.78
2024-03-04T02:42:53.419Z,79228.38
2024-03-04T02:44:34.779Z,79233.13
2024-03-04T02:46:16.167Z,79233.78
2024-03-04T02:47:57.826Z,79228.72
2024-03-04T02:49:39.283Z,79227.53
2024-03-04T02:51:20.698Z,79224.47
2024-03-04T02:53:02.703Z,79230.03
2024-03-04T02:54:44.174Z,79234.09
2024-03-04T02:56:25.548Z,79238.19
2024-03-04T02:58:06.955Z,79230.38
2024-03-04T02:59:48.372Z,79243.19
2024-03-04T03:01:29.825Z,79247.44
2024-03-04T03:03:11.283Z,79245.00
2024-03-04T03:04:52.629Z,79253.03
2024-03-04T03:06:34.030Z,79254.78
2024-03-04T03:08:15.452Z,79257.47
2024-03-04T03:09:56.817Z,79263.31
2024-03-04T03:11:38.288Z,79270.16
2024-03-04T03:13:19.642Z,79275.47
2024-03-04T03:15:01.028Z,79271.16
2024-03-04T03:16:42.516Z,79268.56
2024-03-04T03:18:23.895Z,79270.34
2024-03-04T03:20:05.244Z,79275.81
2024-03-04T03:21:46.747Z,79276.88
2024-03-04T03:23:28.158Z,79275.72
2024-03-04T03:25:10.676Z,79282.13
2024-03-04T03:26:52.104Z,79274.63
2024-03-04T03:28:33.510Z,79275.53
2024-03-04T03:30:14.855Z,79272.97
2024-03-04T03:31:56.228Z,79281.63
2024-03-04T03:33:37.590Z,79296.84
2024-03-04T03:35:18.957Z,79286.84
2024-03-04T03:37:00.381Z,79293.81
2024-03-04T03:38:41.780Z,79284.59
2024-03-04T03:40:23.252Z,79291.75
2024-03-04T03:42:04.724Z,79294.78
2024-03-04T03:43:46.074Z,79298.16
2024-03-04T03:45:27.463Z,79312.50
2024-03-04T03:47:08.841Z,79316.06
2024-03-04T03:48:50.204Z,79312.31
2024-03-04T03:50:31.565Z,79311.19
2024-03-04T03:52:13.029Z,79310.84
2024-03-04T03:53:54.415Z,79308.03
2024-03-04T03:55:35.903Z,79306.44
2024-03-04T03:57:17.337Z,79311.59
2024-03-04T03:58:58.746Z,79319.03
2024-03-04T04:00:40.159Z,79314.88
2024-03-04T04:02:21.555Z,79313.22
2024-03-04T04:04:02.965Z,79318.59
2024-03-04T04:05:44.334Z,79308.06
2024-03-04T04:07:25.736Z,79309.50
2024-03-04T04:09:07.101Z,79304.81
2024-03-04T04:10:48.511Z,79309.09
2024-03-04T04:12:42.959Z,79304.91
2024-03-04T04:14:24.356Z,79304.34
2024-03-04T04:16:05.780Z,79315.03
2024-03-04T04:17:47.213Z,79311.00
2024-03-04T04:19:28.673Z,79313.78
2024-03-04T04:21:10.073Z,79307.41
2024-03-04T04:22:51.445Z,79323.25
2024-03-04T04:24:32.853Z,79314.94
2024-03-04T04:26:14.248Z,79324.78
2024-03-04T04:27:55.734Z,79327.34
2024-03-04T04:29:37.161Z,79326.16
2024-03-04T04:31:18.554Z,79327.25
2024-03-04T04:33:00.016Z,79323.13
2024-03-04T04:34:41.440Z,79325.19
2024-03-04T04:36:22.857Z,79319.84
2024-03-04T04:38:04.221Z,79314.75
2024-03-04T04:39:45.578Z,79317.78
2024-03-04T04:41:26.952Z,79326.56
2024-03-04T04:43:08.341Z,79331.63
2024-03-04T04:44:49.693Z,79324.91
2024-03-04T04:46:31.065Z,79328.34
2024-03-04T04:48:12.449Z,79334.97
2024-03-04T04:49:53.846Z,79333.13
2024-03-04T04:51:35.253Z,79328.88
2024-03-04T04:53:16.653Z,79334.41
2024-03-04T04:54:58.123Z,79337.63
2024-03-04T04:56:39.491Z,79329.69
2024-03-04T04:58:20.945Z,79333.69
2024-03-04T05:00:02.369Z,79334.75
2024-03-04T05:01:43.923Z,79344.69
2024-03-04T05:03:39.613Z,79346.97
2024-03-04T05:05:26.795Z,79349.72
2024-03-04T05:07:08.275Z,79347.16
2024-03-04T05:08:49.618Z,79349.88
2024-03-04T05:10:30.994Z,79353.47
2024-03-04T05:12:12.328Z,79349.19
2024-03-04T05:13:53.777Z,79360.81
2024-03-04T05:15:35.207Z,79360.31
2024-03-04T05:17:16.554Z,79360.19
2024-03-04T05:18:58.136Z,79357.00
2024-03-04T05:20:50.602Z,79362.13
2024-03-04T05:22:37.631Z,79369.63
2024-03-04T05:24:19.199Z,79370.06
2024-03-04T05:26:00.597Z,79376.16
2024-03-04T05:27:41.973Z,79379.50
2024-03-04T05:29:23.361Z,79380.13
2024-03-04T05:31:04.727Z,79384.38
2024-03-04T05:32:46.131Z,79382.63
2024-03-04T05:34:27.614Z,79382.13
2024-03-04T05:36:09.049Z,79390.28
2024-03-04T05:37:50.448Z,79389.22
2024-03-04T05:39:31.808Z,79392.50
2024-03-04T05:41:13.176Z,79381.53
2024-03-04T05:42:54.526Z,79382.19
2024-03-04T05:44:35.864Z,79381.47
2024-03-04T05:46:17.313Z,79383.88
2024-03-04T05:47:58.773Z,79385.06
2024-03-04T05:49:40.228Z,79382.91
2024-03-04T05:51:21.674Z,79385.34
2024-03-04T05:53:03.029Z,79390.81
2024-03-04T05:54:44.373Z,79385.88
2024-03-04T05:56:25.747Z,79385.94
2024-03-04T05:58:07.148Z,79384.66
2024-03-04T05:59:48.543Z,79383.31
2024-03-04T06:01:29.983Z,79378.31
2024-03-04T06:03:11.378Z,79378.47
2024-03-04T06:04:52.769Z,79382.84
2024-03-04T06:06:34.174Z,79383.31
2024-03-04T06:08:15.509Z,79382.38
2024-03-04T06:09:56.850Z,79385.47
2024-03-04T06:11:38.332Z,79386.56
2024-03-04T06:13:19.772Z,79393.94
2024-03-04T06:15:01.112Z,79389.13
2024-03-04T06:16:42.523Z,79393.88
2024-03-04T06:18:23.886Z,79394.63
2024-03-04T06:20:05.251Z,79401.56
2024-03-04T06:21:51.750Z,79401.38
2024-03-04T06:23:38.481Z,79406.25
2024-03-04T06:25:19.881Z,79405.84
2024-03-04T06:27:01.225Z,79406.28
2024-03-04T06:28:42.655Z,79403.69
2024-03-04T06:30:24.072Z,79410.31
2024-03-04T06:32:05.503Z,79410.81
2024-03-04T06:33:52.854Z,79409.66
2024-03-04T06:35:35.526Z,79403.69
2024-03-04T06:37:16.906Z,79409.72
2024-03-04T06:38:58.261Z,79404.97
2024-03-04T06:40:39.705Z,79412.84
2024-03-04T06:42:21.062Z,79404.09
2024-03-04T06:44:02.406Z,79410.59
2024-03-04T06:45:43.724Z,79416.03
2024-03-04T06:47:25.117Z,79403.00
2024-03-04T06:49:06.488Z,79414.53
2024-03-04T06:50:47.847Z,79420.78
2024-03-04T06:52:29.259Z,79418.66
2024-03-04T06:54:10.643Z,79414.13
2024-03-04T06:55:51.981Z,79427.25
2024-03-04T06:57:34.547Z,79420.72
2024-03-04T06:59:16.083Z,79417.22
2024-03-04T07:00:57.478Z,79423.13
2024-03-04T07:02:38.859Z,79422.56
2024-03-04T07:04:20.221Z,79439.88
2024-03-04T07:06:01.564Z,79432.03
2024-03-04T07:07:42.922Z,79430.13
2024-03-04T07:09:24.330Z,79433.44
2024-03-04T07:11:05.735Z,79427.44
2024-03-04T07:12:47.180Z,79429.50
2024-03-04T07:14:28.537Z,79432.84
2024-03-04T07:16:09.868Z,79436.50
2024-03-04T07:17:51.326Z,79436.66
2024-03-04T07:19:32.706Z,79443.94
2024-03-04T07:21:14.097Z,79444.03
2024-03-04T07:22:55.435Z,79442.84
2024-03-04T07:24:36.823Z,79443.59
2024-03-04T07:26:20.724Z,79453.00
2024-03-04T07:28:02.491Z,79458.13
2024-03-04T07:29:48.835Z,79455.13
2024-03-04T07:31:34.198Z,79461.25
2024-03-04T07:33:17.546Z,79465.69
2024-03-04T07:34:59.127Z,79457.34
2024-03-04T07:36:41.119Z,79464.34
2024-03-04T07:38:22.993Z,79473.00
2024-03-04T07:40:04.450Z,79476.25
2024-03-04T07:41:45.805Z,79490.19
2024-03-04T07:43:30.267Z,79481.72
2024-03-04T07:45:11.682Z,79492.31
2024-03-04T07:46:53.053Z,79487.44
2024-03-04T07:48:34.463Z,79494.72
2024-03-04T07:50:15.836Z,79504.16
2024-03-04T07:51:57.206Z,79510.97
2024-03-04T07:53:38.660Z,79503.38
2024-03-04T07:55:22.787Z,79502.28
2024-03-04T07:57:10.648Z,79503.91
2024-03-04T07:58:59.006Z,79500.53
2024-03-04T08:00:40.383Z,79505.28
2024-03-04T08:02:21.752Z,79507.09
2024-03-04T08:04:03.237Z,79512.44
2024-03-04T08:05:44.620Z,79514.88
2024-03-04T08:07:25.994Z,79511.06
2024-03-04T08:09:07.359Z,79513.41
2024-03-04T08:10:48.802Z,79511.84
2024-03-04T08:12:30.403Z,79503.78
2024-03-04T08:14:14.723Z,79508.09
2024-03-04T08:15:58.860Z,79500.34
2024-03-04T08:17:49.900Z,79505.34
2024-03-04T08:19:36.758Z,79504.78
2024-03-04T08:21:18.172Z,79507.28
2024-03-04T08:22:59.844Z,79511.13
2024-03-04T08:24:41.444Z,79512.75
2024-03-04T08:26:22.867Z,79515.03
2024-03-04T08:28:04.869Z,79509.84
2024-03-04T08:29:48.225Z,79512.63
2024-03-04T08:31:29.812Z,79506.84
2024-03-04T08:33:11.240Z,79509.41
2024-03-04T08:34:52.710Z,79515.59
2024-03-04T08:36:34.105Z,79511.63
2024-03-04T08:38:15.430Z,79514.47
2024-03-04T08:39:56.820Z,79517.94
2024-03-04T08:41:38.191Z,79516.06
2024-03-04T08:43:19.682Z,79521.34
2024-03-04T08:45:01.095Z,79520.97
2024-03-04T08:46:42.556Z,79532.78
2024-03-04T08:48:23.992Z,79532.00
2024-03-04T08:50:05.382Z,79534.16
2024-03-04T08:51:46.739Z,79529.97
2024-03-04T08:53:28.099Z,79530.06
2024-03-04T08:55:09.511Z,79528.75
2024-03-04T08:56:50.837Z,79530.94
2024-03-04T08:58:32.199Z,79527.75
2024-03-04T09:00:13.589Z,79526.00
2024-03-04T09:01:55.034Z,79522.09
2024-03-04T09:03:36.437Z,79513.41
2024-03-04T09:05:17.855Z,79520.25
2024-03-04T09:06:59.219Z,79519.69
2024-03-04T09:08:40.557Z,79511.41
2024-03-04T09:10:21.940Z,79503.25
2024-03-04T09:12:03.300Z,79504.50
2024-03-04T09:13:44.770Z,79506.28
2024-03-04T09:15:26.315Z,79497.22
2024-03-04T09:17:07.661Z,79494.75
2024-03-04T09:18:49.119Z,79505.72
2024-03-04T09:20:30.632Z,79506.84
2024-03-04T09:22:12.013Z,79501.78
2024-03-04T09:23:53.405Z,79501.97
2024-03-04T09:25:34.856Z,79500.97
2024-03-04T09:27:16.241Z,79504.84
2024-03-04T09:28:57.603Z,79498.59
2024-03-04T09:30:38.945Z,79498.34
2024-03-04T09:32:20.274Z,79507.75
2024-03-04T09:34:01.694Z,79504.03
2024-03-04T09:35:43.156Z,79501.44
2024-03-04T09:37:24.565Z,79506.56
2024-03-04T09:39:05.920Z,79495.91
2024-03-04T09:40:47.391Z,79502.47
2024-03-04T09:42:28.807Z,79501.22
2024-03-04T09:44:10.168Z,79504.41
2024-03-04T09:45:51.539Z,79502.38
2024-03-04T09:47:32.933Z,79503.78
2024-03-04T09:49:14.342Z,79516.31
2024-03-04T09:50:55.728Z,79511.53
2024-03-04T09:52:37.122Z,79510.31
2024-03-04T09:54:18.483Z,79520.91
2024-03-04T09:55:59.874Z,79510.41
2024-03-04T09:57:41.222Z,79516.00
2024-03-04T09:59:23.042Z,79515.66
2024-03-04T10:01:04.633Z,79510.00
2024-03-04T10:02:46.022Z,79510.94
2024-03-04T10:04:27.481Z,79508.88
2024-03-04T10:06:08.870Z,79510.75
2024-03-04T10:07:50.366Z,79514.13
2024-03-04T10:09:32.131Z,79507.75
2024-03-04T10:11:13.683Z,79510.88
2024-03-04T10:12:55.071Z,79513.91
2024-03-04T10:14:36.398Z,79510.31
2024-03-04T10:16:17.784Z,79503.91
2024-03-04T10:17:59.188Z,79510.66
2024-03-04T10:19:40.623Z,79504.47
2024-03-04T10:21:22.009Z,79502.59
2024-03-04T10:23:03.362Z,79513.41
2024-03-04T10:24:44.686Z,79507.13
2024-03-04T10:26:26.056Z,79506.88
2024-03-04T10:28:07.457Z,79505.44
2024-03-04T10:29:48.846Z,79508.56
2024-03-04T10:31:30.258Z,79505.66
2024-03-04T10:33:11.699Z,79513.69
2024-03-04T10:34:53.095Z,79501.41
2024-03-04T10:36:34.429Z,79506.25
2024-03-04T10:38:15.777Z,79501.97
2024-03-04T10:39:57.109Z,79500.78
2024-03-04T10:41:38.473Z,79500.88
2024-03-04T10:43:19.838Z,79490.13
2024-03-04T10:45:01.265Z,79498.16
2024-03-04T10:46:42.664Z,79502.59
2024-03-04T10:48:24.066Z,79508.69
2024-03-04T10:50:05.400Z,79504.75
2024-03-04T10:51:55.019Z,79510.41
2024-03-04T10:53:44.879Z,79514.34
2024-03-04T10:55:26.291Z,79514.47
2024-03-04T10:57:07.673Z,79519.50
2024-03-04T10:58:49.109Z,79516.75
2024-03-04T11:00:30.495Z,79518.06
2024-03-04T11:02:12.047Z,79516.13
2024-03-04T11:03:53.477Z,79512.47
2024-03-04T11:05:35.287Z,79522.19
2024-03-04T11:07:16.826Z,79517.25
2024-03-04T11:08:58.675Z,79520.03
2024-03-04T11:10:40.524Z,79517.41
2024-03-04T11:12:21.960Z,79515.69
2024-03-04T11:14:03.297Z,79519.69
2024-03-04T11:15:44.834Z,79523.03
2024-03-04T11:17:26.286Z,79526.88
2024-03-04T11:19:07.660Z,79527.25
2024-03-04T11:20:49.001Z,79525.25
2024-03-04T11:22:30.392Z,79523.22
2024-03-04T11:24:11.749Z,79523.00
2024-03-04T11:25:53.178Z,79517.03
2024-03-04T11:27:34.625Z,79519.25
2024-03-04T11:29:15.987Z,79522.69
2024-03-04T11:30:57.348Z,79523.78
2024-03-04T11:32:38.884Z,79527.28
2024-03-04T11:34:20.336Z,79524.22
2024-03-04T11:36:01.723Z,79529.16
2024-03-04T11:37:43.120Z,79519.81
2024-03-04T11:39:24.522Z,79518.22
2024-03-04T11:41:05.902Z,79517.00
2024-03-04T11:42:47.278Z,79516.44
2024-03-04T11:44:28.991Z,79521.34
2024-03-04T11:46:10.486Z,79532.09
2024-03-04T11:47:51.945Z,79541.84
2024-03-04T11:49:33.485Z,79543.06
2024-03-04T11:51:14.950Z,79542.94
2024-03-04T11:52:56.317Z,79545.09
2024-03-04T11:54:37.805Z,79550.00
2024-03-04T11:56:19.233Z,79551.56
2024-03-04T11:58:00.592Z,79543.16
2024-03-04T11:59:41.971Z,79549.03
2024-03-04T12:01:23.549Z,79550.41
2024-03-04T12:03:05.083Z,79550.16
2024-03-04T12:04:46.470Z,79551.66
2024-03-04T12:06:27.898Z,79547.75
2024-03-04T12:08:21.458Z,79541.47
2024-03-04T12:10:16.663Z,79537.06
2024-03-04T12:11:59.353Z,79529.84
2024-03-04T12:13:40.745Z,79534.41
2024-03-04T12:15:22.098Z,79530.81
2024-03-04T12:17:03.468Z,79531.94
2024-03-04T12:18:44.844Z,79531.28
2024-03-04T12:20:26.175Z,79532.50
2024-03-04T12:22:07.592Z,79528.19
2024-03-04T12:23:48.988Z,79524.66
2024-03-04T12:25:30.378Z,79524.16
2024-03-04T12:27:11.773Z,79522.06
2024-03-04T12:28:53.174Z,79529.56
2024-03-04T12:30:34.567Z,79518.47
2024-03-04T12:32:16.020Z,79529.56
2024-03-04T12:33:57.385Z,79527.84
2024-03-04T12:35:38.724Z,79520.25
2024-03-04T12:37:20.110Z,79521.91
2024-03-04T12:39:01.463Z,79524.69
2024-03-04T12:40:42.830Z,79529.16
2024-03-04T12:42:24.233Z,79526.66
2024-03-04T12:44:05.595Z,79529.88
2024-03-04T12:45:46.961Z,79527.47
2024-03-04T12:47:28.340Z,79531.25
2024-03-04T12:49:09.751Z,79531.13
2024-03-04T12:50:51.120Z,79526.94
2024-03-04T12:52:32.495Z,79520.81
2024-03-04T12:54:13.853Z,79522.44
2024-03-04T12:55:55.242Z,79524.63
2024-03-04T12:57:36.694Z,79513.16
2024-03-04T12:59:18.057Z,79517.13
2024-03-04T13:00:59.416Z,79517.09
2024-03-04T13:02:40.807Z,79511.53
2024-03-04T13:04:22.215Z,79509.28
2024-03-04T13:06:03.622Z,79521.03
2024-03-04T13:07:45.491Z,79507.97
2024-03-04T13:09:27.060Z,79520.03
2024-03-04T13:11:08.518Z,79509.44
2024-03-04T13:12:49.903Z,79517.09
2024-03-04T13:14:31.317Z,79520.31
2024-03-04T13:16:12.737Z,79525.78
2024-03-04T13:17:54.174Z,79524.88
2024-03-04T13:19:35.623Z,79518.03
2024-03-04T13:21:16.952Z,79526.72
2024-03-04T13:22:58.373Z,79515.53
2024-03-04T13:24:39.796Z,79521.94
2024-03-04T13:26:21.221Z,79518.97
2024-03-04T13:28:02.614Z,79523.06
2024-03-04T13:29:44.037Z,79523.94
2024-03-04T13:31:25.454Z,79529.03
2024-03-04T13:33:06.867Z,79527.44
2024-03-04T13:34:48.341Z,79519.81
2024-03-04T13:36:29.675Z,79524.75
2024-03-04T13:38:11.052Z,79524.59
2024-03-04T13:39:52.456Z,79528.13
2024-03-04T13:41:33.814Z,79514.06
2024-03-04T13:43:19.575Z,79520.56
2024-03-04T13:45:01.930Z,79525.06
2024-03-04T13:46:43.309Z,79525.88
2024-03-04T13:48:24.785Z,79523.09
2024-03-04T13:50:06.229Z,79525.16
2024-03-04T13:51:47.610Z,79525.47
2024-03-04T13:53:28.984Z,79516.66
2024-03-04T13:55:10.519Z,79521.94
2024-03-04T13:56:51.966Z,79522.19
2024-03-04T13:58:33.371Z,79521.63
2024-03-04T14:00:15.828Z,79525.63
2024-03-04T14:01:57.792Z,79518.56
2024-03-04T14:03:39.201Z,79520.22
2024-03-04T14:05:20.579Z,79518.38
2024-03-04T14:07:01.958Z,79523.38
2024-03-04T14:08:43.333Z,79523.72
2024-03-04T14:10:24.838Z,79523.22
2024-03-04T14:12:06.222Z,79524.56
2024-03-04T14:13:47.678Z,79527.75
2024-03-04T14:15:29.129Z,79528.97
2024-03-04T14:17:10.493Z,79527.16
2024-03-04T14:18:51.839Z,79521.78
2024-03-04T14:20:33.354Z,79524.94
2024-03-04T14:22:14.773Z,79525.56
2024-03-04T14:23:56.123Z,79532.84
2024-03-04T14:25:37.555Z,79529.72
2024-03-04T14:27:18.921Z,79530.56
2024-03-04T14:29:02.967Z,79522.44
2024-03-04T14:30:45.957Z,79528.69
2024-03-04T14:32:27.512Z,79537.69
2024-03-04T14:34:09.022Z,79536.09
2024-03-04T14:35:50.439Z,79528.41
2024-03-04T14:37:31.883Z,79527.41
2024-03-04T14:39:13.277Z,79543.41
2024-03-04T14:40:57.521Z,79534.06
2024-03-04T14:42:40.100Z,79539.13
2024-03-04T14:44:21.446Z,79549.75
2024-03-04T14:46:02.821Z,79541.94
2024-03-04T14:47:44.189Z,79546.69
2024-03-04T14:49:25.689Z,79550.00
2024-03-04T14:51:07.141Z,79551.56
2024-03-04T14:52:48.552Z,79551.06
2024-03-04T14:54:29.912Z,79548.38
2024-03-04T14:56:11.442Z,79558.16
2024-03-04T14:57:52.900Z,79559.91
2024-03-04T14:59:34.948Z,79564.03
2024-03-04T15:01:17.069Z,79567.94
2024-03-04T15:02:58.439Z,79569.94
2024-03-04T15:04:39.961Z,79566.81
2024-03-04T15:06:21.562Z,79564.50
2024-03-04T15:08:02.919Z,79568.91
2024-03-04T15:09:45.761Z,79569.00
2024-03-04T15:11:27.265Z,79567.78
2024-03-04T15:13:08.676Z,79579.63
2024-03-04T15:14:50.061Z,79581.66
2024-03-04T15:16:31.460Z,79579.69
2024-03-04T15:18:18.462Z,79585.56
2024-03-04T15:20:03.482Z,79581.63
2024-03-04T15:21:44.856Z,79579.03
2024-03-04T15:23:26.257Z,79586.13
2024-03-04T15:25:07.612Z,79578.31
2024-03-04T15:26:49.014Z,79583.53
2024-03-04T15:28:30.486Z,79571.06
2024-03-04T15:30:11.917Z,79575.03
2024-03-04T15:31:53.328Z,79583.56
2024-03-04T15:33:34.836Z,79583.63
2024-03-04T15:35:16.169Z,79588.41
2024-03-04T15:36:57.664Z,79599.59
2024-03-04T15:38:39.081Z,79606.53
2024-03-04T15:40:20.462Z,79596.72
2024-03-04T15:42:01.902Z,79604.50
2024-03-04T15:43:43.335Z,79607.81
2024-03-04T15:45:24.742Z,79612.66
2024-03-04T15:47:06.221Z,79612.47
2024-03-04T15:48:47.547Z,79610.19
2024-03-04T15:50:28.874Z,79605.19
2024-03-04T15:52:10.334Z,79605.78
2024-03-04T15:53:51.739Z,79613.66
2024-03-04T15:55:33.317Z,79616.16
2024-03-04T15:57:14.754Z,79616.41
2024-03-04T15:58:56.115Z,79612.00
2024-03-04T16:00:37.561Z,79616.53
2024-03-04T16:02:18.938Z,79621.69
2024-03-04T16:04:00.293Z,79619.72
2024-03-04T16:05:41.646Z,79619.53
2024-03-04T16:07:23.517Z,79630.84
2024-03-04T16:09:05.157Z,79632.28
2024-03-04T16:10:46.655Z,79617.06
2024-03-04T16:12:28.470Z,79617.59
2024-03-04T16:14:10.019Z,79612.09
2024-03-04T16:15:54.410Z,79614.47
2024-03-04T16:17:37.692Z,79619.78
2024-03-04T16:19:19.138Z,79617.34
2024-03-04T16:21:00.689Z,79624.94
2024-03-04T16:22:42.269Z,79618.88
2024-03-04T16:24:23.632Z,79616.88
2024-03-04T16:26:04.981Z,79617.94
2024-03-04T16:27:46.633Z,79622.97
2024-03-04T16:29:28.168Z,79619.25
2024-03-04T16:31:09.693Z,79628.50
2024-03-04T16:32:51.236Z,79625.16
2024-03-04T16:34:32.672Z,79632.50
2024-03-04T16:36:14.043Z,79634.59
2024-03-04T16:37:55.607Z,79635.22
2024-03-04T16:39:37.113Z,79636.75
2024-03-04T16:41:18.488Z,79642.19
2024-03-04T16:42:59.866Z,79639.84
2024-03-04T16:44:41.221Z,79644.81
2024-03-04T16:46:22.634Z,79649.63
2024-03-04T16:48:04.044Z,79652.69
2024-03-04T16:49:45.439Z,79663.72
2024-03-04T16:51:26.800Z,79661.75
2024-03-04T16:53:08.201Z,79663.88
2024-03-04T16:54:49.546Z,79661.13
2024-03-04T16:56:30.885Z,79667.34
2024-03-04T16:58:12.281Z,79669.78
2024-03-04T16:59:54.261Z,79668.44
2024-03-04T17:01:38.882Z,79673.47
2024-03-04T17:03:23.640Z,79670.66
2024-03-04T17:05:05.185Z,79667.00
2024-03-04T17:06:46.544Z,79672.59
2024-03-04T17:08:27.957Z,79673.19
2024-03-04T17:10:09.337Z,79664.41
2024-03-04T17:11:50.765Z,79671.53
2024-03-04T17:13:32.163Z,79666.00
2024-03-04T17:15:13.769Z,79663.75
2024-03-04T17:16:55.358Z,79671.56
2024-03-04T17:18:37.206Z,79665.47
2024-03-04T17:20:18.804Z,79670.63
2024-03-04T17:22:00.331Z,79669.31
2024-03-04T17:23:42.064Z,79664.41
2024-03-04T17:25:23.691Z,79675.78
2024-03-04T17:27:05.314Z,79678.88
2024-03-04T17:28:46.778Z,79679.78
2024-03-04T17:30:28.190Z,79676.19
2024-03-04T17:32:09.515Z,79681.91
2024-03-04T17:33:50.886Z,79681.06
2024-03-04T17:35:32.243Z,79687.47
2024-03-04T17:37:13.631Z,79686.47
2024-03-04T17:38:57.448Z,79674.16
2024-03-04T17:40:39.272Z,79680.63
2024-03-04T17:42:20.931Z,79679.66
2024-03-04T17:44:02.565Z,79686.03
2024-03-04T17:45:43.932Z,79684.66
2024-03-04T17:47:25.296Z,79673.31
2024-03-04T17:49:06.823Z,79680.28
2024-03-04T17:50:49.189Z,79682.25
2024-03-04T17:52:30.587Z,79686.81
2024-03-04T17:54:12.386Z,79681.81
2024-03-04T17:55:54.051Z,79673.06
2024-03-04T17:57:35.612Z,79675.00
2024-03-04T17:59:17.000Z,79677.75
2024-03-04T18:00:58.532Z,79671.06
2024-03-04T18:02:39.942Z,79668.72
2024-03-04T18:04:21.394Z,79675.06
2024-03-04T18:06:02.789Z,79679.44
2024-03-04T18:07:44.216Z,79674.50
2024-03-04T18:09:25.636Z,79674.63
2024-03-04T18:11:07.232Z,79671.53
2024-03-04T18:12:48.679Z,79672.09
2024-03-04T18:14:30.162Z,79678.09
2024-03-04T18:16:11.588Z,79672.38
2024-03-04T18:17:53.051Z,79676.44
2024-03-04T18:19:34.451Z,79670.19
2024-03-04T18:21:15.819Z,79669.97
2024-03-04T18:22:57.471Z,79672.56
2024-03-04T18:24:38.983Z,79668.97
2024-03-04T18:26:20.397Z,79669.41
2024-03-04T18:28:01.798Z,79668.94
2024-03-04T18:29:43.151Z,79664.81
2024-03-04T18:31:24.671Z,79665.81
2024-03-04T18:33:06.273Z,79659.59
2024-03-04T18:34:47.969Z,79675.38
2024-03-04T18:36:29.534Z,79670.91
2024-03-04T18:38:10.877Z,79673.91
2024-03-04T18:39:52.280Z,79676.28
2024-03-04T18:41:33.954Z,79681.03
2024-03-04T18:43:15.516Z,79693.03
2024-03-04T18:44:56.908Z,79693.31
2024-03-04T18:46:38.445Z,79689.16
2024-03-04T18:48:19.966Z,79685.59
2024-03-04T18:50:01.400Z,79693.19
2024-03-04T18:51:42.805Z,79700.22
2024-03-04T18:53:24.189Z,79701.91
2024-03-04T18:55:05.538Z,79711.75
2024-03-04T18:56:46.915Z,79719.41
2024-03-04T18:58:28.379Z,79716.03
2024-03-04T19:00:09.812Z,79727.91
2024-03-04T19:01:51.342Z,79720.78
2024-03-04T19:03:33.004Z,79725.78
2024-03-04T19:05:14.453Z,79730.63
2024-03-04T19:06:55.919Z,79731.16
2024-03-04T19:08:37.291Z,79721.91
2024-03-04T19:10:18.855Z,79731.16
2024-03-04T19:12:00.434Z,79723.34
2024-03-04T19:13:41.961Z,79727.03
2024-03-04T19:15:23.476Z,79723.03
2024-03-04T19:17:04.886Z,79727.88
2024-03-04T19:18:46.234Z,79741.22
2024-03-04T19:20:27.652Z,79740.09
2024-03-04T19:22:09.060Z,79739.25
2024-03-04T19:23:50.531Z,79747.47
2024-03-04T19:25:31.980Z,79746.66
2024-03-04T19:27:13.487Z,79748.03
2024-03-04T19:28:54.906Z,79745.78
2024-03-04T19:30:36.330Z,79745.66
2024-03-04T19:32:17.688Z,79740.56
2024-03-04T19:33:59.045Z,79741.13
2024-03-04T19:35:40.423Z,79749.47
2024-03-04T19:37:21.836Z,79752.50
2024-03-04T19:39:03.192Z,79753.72
2024-03-04T19:40:44.623Z,79756.66
2024-03-04T19:42:26.167Z,79750.47
2024-03-04T19:44:07.578Z,79745.13
2024-03-04T19:45:48.996Z,79752.81
2024-03-04T19:47:31.093Z,79749.50
2024-03-04T19:49:12.635Z,79742.81
2024-03-04T19:50:54.102Z,79749.22
2024-03-04T19:52:35.608Z,79752.75
2024-03-04T19:54:17.110Z,79755.06